createdAt,value
2022-08-07T00:00:57.584Z,11.42
2022-08-07T00:03:47.623Z,11.41
2022-08-07T00:06:35.577Z,11.39
2022-08-07T00:09:34.305Z,11.39
2022-08-07T00:12:16.391Z,11.37
2022-08-07T00:15:01.657Z,11.30
2022-08-07T00:17:48.964Z,11.25
2022-08-07T00:20:38.072Z,11.11
2022-08-07T00:23:28.298Z,11.04
2022-08-07T00:26:31.144Z,10.98
2022-08-07T00:29:04.838Z,11.00
2022-08-07T00:31:55.295Z,11.01
2022-08-07T00:34:43.311Z,11.02
2022-08-07T00:37:30.638Z,11.03
2022-08-07T00:40:36.180Z,11.06
2022-08-07T00:43:58.997Z,11.07
2022-08-07T00:46:01.989Z,11.07
2022-08-07T00:48:49.881Z,11.04
2022-08-07T00:51:58.576Z,11.09
2022-08-07T00:54:28.159Z,11.13
2022-08-07T00:57:18.775Z,11.16
2022-08-07T01:00:08.567Z,11.09
2022-08-07T01:02:56.229Z,11.00
2022-08-07T01:05:51.647Z,10.97
2022-08-07T01:08:36.191Z,11.02
2022-08-07T01:12:27.349Z,11.07
2022-08-07T01:14:15.584Z,11.12
2022-08-07T01:17:04.062Z,11.21
2022-08-07T01:19:54.588Z,11.24
2022-08-07T01:22:54.192Z,11.22
2022-08-07T01:25:53.779Z,11.21
2022-08-07T01:28:21.655Z,11.17
2022-08-07T01:31:09.807Z,11.13
2022-08-07T01:34:00.091Z,11.07
2022-08-07T01:36:57.661Z,11.03
2022-08-07T01:39:41.494Z,10.99
2022-08-07T01:42:38.097Z,11.00
2022-08-07T01:45:23.044Z,10.99
2022-08-07T01:48:30.133Z,10.94
2022-08-07T01:51:24.606Z,10.95
2022-08-07T01:54:11.817Z,10.96
2022-08-07T01:57:20.744Z,10.91
2022-08-07T02:00:13.801Z,10.86
2022-08-07T02:03:12.366Z,10.87
2022-08-07T02:06:08.945Z,10.91
2022-08-07T02:08:57.209Z,10.96
2022-08-07T02:12:02.830Z,10.99
2022-08-07T02:14:41.095Z,11.03
2022-08-07T02:17:31.724Z,11.11
2022-08-07T02:20:23.483Z,11.19
2022-08-07T02:23:07.848Z,11.28
2022-08-07T02:26:30.570Z,11.35
2022-08-07T02:28:46.352Z,11.41
2022-08-07T02:31:36.257Z,11.48
2022-08-07T02:34:23.849Z,11.49
2022-08-07T02:37:11.784Z,11.51
2022-08-07T02:40:11.819Z,11.59
2022-08-07T02:42:50.552Z,11.71
2022-08-07T02:46:00.743Z,11.73
2022-08-07T02:48:32.423Z,11.72
2022-08-07T02:51:41.678Z,11.77
2022-08-07T02:54:13.168Z,11.82
2022-08-07T02:57:03.215Z,11.86
2022-08-07T03:00:00.839Z,11.90
2022-08-07T03:02:54.587Z,11.95
2022-08-07T03:05:38.065Z,12.00
2022-08-07T03:08:26.846Z,11.99
2022-08-07T03:11:15.245Z,11.96
2022-08-07T03:14:04.904Z,11.97
2022-08-07T03:16:52.730Z,12.04
2022-08-07T03:19:40.512Z,12.09
2022-08-07T03:22:30.567Z,12.15
2022-08-07T03:25:21.128Z,12.19
2022-08-07T03:28:38.434Z,12.22
2022-08-07T03:31:18.216Z,12.17
2022-08-07T03:34:07.392Z,12.20
2022-08-07T03:36:57.367Z,12.23
2022-08-07T03:40:13.189Z,12.24
2022-08-07T03:42:37.162Z,12.24
2022-08-07T03:45:30.113Z,12.21
2022-08-07T03:48:16.598Z,12.19
2022-08-07T03:51:04.658Z,12.19
2022-08-07T03:54:32.953Z,12.18
2022-08-07T03:56:42.258Z,12.24
2022-08-07T03:59:32.525Z,12.36
2022-08-07T04:02:20.072Z,12.51
2022-08-07T04:05:08.450Z,12.61
2022-08-07T04:07:57.713Z,12.68
2022-08-07T04:10:54.059Z,12.74
2022-08-07T04:14:14.030Z,12.79
2022-08-07T04:16:30.928Z,12.84
2022-08-07T04:19:15.649Z,12.87
2022-08-07T04:22:08.702Z,12.97
2022-08-07T04:24:52.935Z,13.07
2022-08-07T04:27:44.282Z,13.13
2022-08-07T04:30:43.690Z,13.22
2022-08-07T04:33:19.762Z,13.31
2022-08-07T04:36:09.529Z,13.42
2022-08-07T04:38:58.582Z,13.50
2022-08-07T04:41:50.460Z,13.59
2022-08-07T04:44:37.025Z,13.61
2022-08-07T04:47:56.947Z,13.64
2022-08-07T04:50:45.530Z,13.74
2022-08-07T04:54:06.462Z,13.90
2022-08-07T04:58:16.566Z,14.16
2022-08-07T05:00:12.395Z,14.39
2022-08-07T05:02:24.354Z,14.61
2022-08-07T05:05:53.131Z,14.88
2022-08-07T05:10:58.554Z,15.08
2022-08-07T05:14:55.033Z,15.20
2022-08-07T05:16:44.021Z,15.51
2022-08-07T05:19:45.037Z,15.96
2022-08-07T05:22:27.605Z,16.28
2022-08-07T05:25:26.268Z,16.58
2022-08-07T05:28:20.656Z,16.80
2022-08-07T05:30:53.739Z,17.00
2022-08-07T05:33:41.801Z,17.09
2022-08-07T05:36:35.483Z,17.24
2022-08-07T05:40:07.112Z,17.39
2022-08-07T05:42:12.866Z,17.48
2022-08-07T05:45:14.475Z,17.47
2022-08-07T05:48:02.118Z,17.51
2022-08-07T05:50:39.484Z,17.47
2022-08-07T05:54:13.597Z,17.35
2022-08-07T05:56:19.436Z,17.29
2022-08-07T05:59:11.194Z,17.31
2022-08-07T06:02:00.812Z,17.42
2022-08-07T06:04:53.640Z,17.46
2022-08-07T06:08:13.536Z,17.44
2022-08-07T06:10:30.259Z,17.48
2022-08-07T06:13:18.001Z,17.70
2022-08-07T06:16:10.219Z,17.96
2022-08-07T06:19:01.014Z,18.24
2022-08-07T06:22:16.400Z,18.45
2022-08-07T06:24:56.932Z,18.68
2022-08-07T06:27:44.279Z,18.80
2022-08-07T06:30:31.970Z,18.82
2022-08-07T06:33:09.911Z,18.98
2022-08-07T06:36:12.061Z,19.09
2022-08-07T06:38:58.414Z,19.06
2022-08-07T06:42:01.495Z,18.99
2022-08-07T06:44:36.644Z,18.98
2022-08-07T06:47:22.312Z,18.90
2022-08-07T06:50:10.938Z,18.85
2022-08-07T06:52:58.856Z,18.75
2022-08-07T06:55:53.963Z,18.66
2022-08-07T06:58:37.396Z,18.43
2022-08-07T07:01:26.329Z,18.23
2022-08-07T07:04:28.027Z,18.22
2022-08-07T07:07:10.778Z,18.31
2022-08-07T07:09:55.585Z,18.29
2022-08-07T07:12:53.575Z,18.36
2022-08-07T07:15:43.252Z,18.50
2022-08-07T07:18:46.953Z,18.56
2022-08-07T07:21:40.103Z,18.69
2022-08-07T07:24:18.090Z,18.97
2022-08-07T07:27:06.120Z,19.24
